createdAt,value
2018-04-10T00:02:11.918Z,13.50
2018-04-10T00:04:40.215Z,13.50
2018-04-10T00:07:08.542Z,13.50
2018-04-10T00:09:36.844Z,13.50
2018-04-10T00:12:05.938Z,13.50
2018-04-10T00:14:35.009Z,13.40
2018-04-10T00:17:03.299Z,13.40
2018-04-10T00:19:32.332Z,13.40
2018-04-10T00:22:00.780Z,13.40
2018-04-10T00:24:29.088Z,13.30
2018-04-10T00:26:57.401Z,13.30
2018-04-10T00:29:25.693Z,13.30
2018-04-10T00:31:53.948Z,13.30
2018-04-10T00:34:22.296Z,13.20
2018-04-10T00:36:50.608Z,13.20
2018-04-10T00:39:18.885Z,13.10
2018-04-10T00:41:47.258Z,13.10
2018-04-10T00:44:17.071Z,13.00
2018-04-10T00:46:45.455Z,13.00
2018-04-10T00:49:13.872Z,13.00
2018-04-10T00:51:42.896Z,13.00
2018-04-10T00:54:11.169Z,13.00
2018-04-10T00:56:40.506Z,13.00
2018-04-10T00:59:08.770Z,12.90
2018-04-10T01:01:37.797Z,12.90
2018-04-10T01:04:06.084Z,12.90
2018-04-10T01:06:34.484Z,12.90
2018-04-10T01:09:02.740Z,12.90
2018-04-10T01:11:31.015Z,12.90
2018-04-10T01:14:00.082Z,12.90
2018-04-10T01:16:29.141Z,12.90
2018-04-10T01:18:57.427Z,12.90
2018-04-10T01:21:25.698Z,12.90
2018-04-10T01:23:53.996Z,12.90
2018-04-10T01:26:22.270Z,13.00
2018-04-10T01:28:50.562Z,13.00
2018-04-10T01:31:19.893Z,13.00
2018-04-10T01:33:48.922Z,13.00
2018-04-10T01:36:17.197Z,13.00
2018-04-10T01:38:45.463Z,12.90
2018-04-10T01:41:13.706Z,12.90
2018-04-10T01:43:42.011Z,13.00
2018-04-10T01:46:10.304Z,13.00
2018-04-10T01:48:38.561Z,12.90
2018-04-10T01:51:06.859Z,12.90
2018-04-10T01:53:35.264Z,12.80
2018-04-10T01:56:03.538Z,12.80
2018-04-10T01:58:33.580Z,12.70
2018-04-10T02:01:02.599Z,12.80
2018-04-10T02:03:30.885Z,12.70
2018-04-10T02:06:02.776Z,12.60
2018-04-10T02:08:31.025Z,12.60
2018-04-10T02:16:37.662Z,12.60
2018-04-10T02:19:06.133Z,12.50
2018-04-10T02:21:34.394Z,12.50
2018-04-10T02:24:02.662Z,12.50
2018-04-10T02:26:30.948Z,12.50
2018-04-10T02:28:59.204Z,12.50
2018-04-10T02:31:27.456Z,12.50
2018-04-10T02:33:55.730Z,12.50
2018-04-10T02:36:24.791Z,12.50
2018-04-10T02:38:53.041Z,12.40
2018-04-10T02:41:21.319Z,12.40
2018-04-10T02:43:49.590Z,12.40
2018-04-10T02:46:17.855Z,12.40
2018-04-10T02:48:46.103Z,12.40
2018-04-10T02:51:15.509Z,12.40
2018-04-10T02:53:44.570Z,12.30
2018-04-10T02:56:12.951Z,12.20
2018-04-10T02:58:41.425Z,12.20
2018-04-10T03:01:09.703Z,12.20
2018-04-10T03:03:37.964Z,12.20
2018-04-10T03:06:06.292Z,12.10
2018-04-10T03:08:35.289Z,12.10
2018-04-10T03:11:03.585Z,12.10
2018-04-10T03:13:31.876Z,12.10
2018-04-10T03:16:00.179Z,12.10
2018-04-10T03:18:28.454Z,12.10
2018-04-10T03:20:56.739Z,12.10
2018-04-10T03:23:25.009Z,12.00
2018-04-10T03:25:53.409Z,11.90
2018-04-10T03:28:22.513Z,11.70
2018-04-10T03:30:51.578Z,11.80
2018-04-10T03:33:19.893Z,11.70
2018-04-10T03:35:49.298Z,11.70
2018-04-10T03:38:17.565Z,11.70
2018-04-10T03:40:45.829Z,11.60
2018-04-10T03:43:14.902Z,11.50
2018-04-10T03:45:43.190Z,11.50
2018-04-10T03:48:12.237Z,11.50
2018-04-10T03:50:40.529Z,11.50
2018-04-10T03:53:08.867Z,11.50
2018-04-10T03:55:37.908Z,11.40
2018-04-10T04:00:39.820Z,11.40
2018-04-10T04:03:08.999Z,11.30
2018-04-10T04:05:37.259Z,11.30
2018-04-10T04:08:07.063Z,11.20
2018-04-10T04:10:36.603Z,11.20
2018-04-10T04:13:04.833Z,11.20
2018-04-10T04:15:33.111Z,11.20
2018-04-10T04:18:02.532Z,11.20
2018-04-10T04:34:21.501Z,11.00
2018-04-10T04:36:49.787Z,11.00
2018-04-10T04:39:20.932Z,10.90
2018-04-10T04:41:49.198Z,10.90
2018-04-10T04:44:17.554Z,10.90
2018-04-10T04:46:45.859Z,10.90
2018-04-10T04:49:14.160Z,10.90
2018-04-10T04:51:42.451Z,10.90
2018-04-10T04:54:10.713Z,10.90
2018-04-10T04:56:39.028Z,10.90
2018-04-10T04:59:07.365Z,10.80
2018-04-10T05:01:35.632Z,10.90
2018-04-10T05:04:04.655Z,10.90
2018-04-10T05:06:32.936Z,10.90
2018-04-10T05:09:01.221Z,10.90
2018-04-10T05:11:29.513Z,10.90
2018-04-10T05:13:57.784Z,10.90
2018-04-10T05:16:26.063Z,10.90
2018-04-10T05:18:54.388Z,10.90
2018-04-10T05:21:22.647Z,11.00
2018-04-10T05:23:51.725Z,11.00
2018-04-10T05:26:20.139Z,11.00
2018-04-10T05:28:49.165Z,11.00
2018-04-10T05:31:17.476Z,11.00
2018-04-10T05:33:45.736Z,11.10
2018-04-10T05:36:14.046Z,11.10
2018-04-10T05:38:43.107Z,11.10
2018-04-10T05:41:11.391Z,11.10
2018-04-10T05:43:39.636Z,11.10
2018-04-10T05:46:07.961Z,11.20
2018-04-10T05:48:36.266Z,11.20
2018-04-10T05:51:04.592Z,11.20
2018-04-10T05:53:32.875Z,11.30
2018-04-10T05:56:01.180Z,11.30
2018-04-10T05:58:29.538Z,11.40
2018-04-10T06:00:57.847Z,11.50
2018-04-10T06:03:26.126Z,11.70
2018-04-10T06:05:55.136Z,11.90
2018-04-10T06:08:23.405Z,11.90
2018-04-10T06:10:51.661Z,12.00
2018-04-10T06:13:19.979Z,12.20
2018-04-10T06:15:48.311Z,12.30
2018-04-10T06:18:16.605Z,12.40
2018-04-10T06:20:45.703Z,12.50
2018-04-10T06:23:14.768Z,12.80
2018-04-10T06:25:43.069Z,12.70
2018-04-10T06:28:11.352Z,12.90
2018-04-10T06:30:39.616Z,13.10
2018-04-10T06:33:07.932Z,13.30
2018-04-10T06:35:36.212Z,13.70
2018-04-10T06:38:04.474Z,13.90
2018-04-10T06:40:32.751Z,14.40
2018-04-10T06:43:01.029Z,14.60
2018-04-10T06:45:29.310Z,15.20
2018-04-10T06:47:57.619Z,15.20
2018-04-10T06:50:25.875Z,15.40
2018-04-10T06:52:54.175Z,15.70
2018-04-10T06:55:22.462Z,15.90
2018-04-10T06:57:52.294Z,16.00
2018-04-10T07:00:20.594Z,15.90
2018-04-10T07:02:48.870Z,16.10
2018-04-10T07:05:17.144Z,16.50
2018-04-10T07:07:45.443Z,16.60
2018-04-10T07:10:13.676Z,16.50
2018-04-10T07:12:42.001Z,16.40
2018-04-10T07:15:11.537Z,16.50
2018-04-10T07:17:39.849Z,16.60
2018-04-10T07:20:08.116Z,16.50
2018-04-10T07:22:36.432Z,16.20
2018-04-10T07:25:04.697Z,16.20
2018-04-10T07:27:33.016Z,15.90
2018-04-10T07:30:01.376Z,15.50
2018-04-10T07:32:29.615Z,15.50
2018-04-10T07:34:57.914Z,15.30
2018-04-10T07:37:26.156Z,15.20
2018-04-10T07:39:54.444Z,14.90
2018-04-10T07:42:22.733Z,14.90
2018-04-10T07:44:51.027Z,14.80
2018-04-10T07:47:19.351Z,14.60
2018-04-10T07:49:47.623Z,14.70
2018-04-10T07:52:15.971Z,14.70
2018-04-10T07:54:44.231Z,14.80
2018-04-10T07:57:12.526Z,14.80
2018-04-10T07:59:40.800Z,14.90
2018-04-10T08:02:09.085Z,14.90
2018-04-10T08:04:38.170Z,15.10
2018-04-10T08:07:06.449Z,15.10
2018-04-10T08:09:34.684Z,15.10
2018-04-10T08:12:02.990Z,15.10
2018-04-10T08:14:31.280Z,15.30
2018-04-10T08:17:00.321Z,15.40
2018-04-10T08:19:28.597Z,15.50
2018-04-10T08:21:56.865Z,15.50
2018-04-10T08:24:25.336Z,15.60
2018-04-10T08:26:54.397Z,15.70
2018-04-10T08:29:22.636Z,15.70
2018-04-10T08:31:50.949Z,15.70
2018-04-10T08:34:19.320Z,15.70
2018-04-10T08:36:48.427Z,15.80
2018-04-10T08:39:16.730Z,15.70
2018-04-10T08:41:44.990Z,15.70
2018-04-10T08:44:14.002Z,15.80
2018-04-10T08:46:42.792Z,15.70
2018-04-10T08:49:11.069Z,15.90
2018-04-10T08:51:39.366Z,16.00
2018-04-10T08:54:07.687Z,16.10
2018-04-10T08:56:36.225Z,16.10
2018-04-10T08:59:04.482Z,16.10
2018-04-10T09:01:32.761Z,16.20
2018-04-10T09:04:01.012Z,16.40
2018-04-10T09:06:30.057Z,16.60
2018-04-10T09:08:58.334Z,16.60
2018-04-10T09:11:26.596Z,16.70
2018-04-10T09:13:54.885Z,16.90
2018-04-10T09:16:23.204Z,16.80
2018-04-10T09:18:52.254Z,16.90
2018-04-10T09:21:20.646Z,16.90
2018-04-10T09:23:50.179Z,17.00
2018-04-10T09:26:18.436Z,17.00
2018-04-10T09:28:46.731Z,17.00
2018-04-10T09:31:16.564Z,17.00
2018-04-10T09:33:46.869Z,16.90
2018-04-10T09:36:16.634Z,16.70
2018-04-10T09:38:44.925Z,16.70
2018-04-10T09:41:13.232Z,16.80
2018-04-10T09:43:43.513Z,17.10
2018-04-10T09:46:12.535Z,17.00
2018-04-10T09:48:41.717Z,17.00
2018-04-10T09:51:09.951Z,16.90
2018-04-10T09:53:38.231Z,16.80
2018-04-10T09:56:06.560Z,17.00
2018-04-10T09:58:35.617Z,17.20
2018-04-10T10:01:03.923Z,17.10
2018-04-10T10:03:33.497Z,17.20
2018-04-10T10:06:01.774Z,17.20
2018-04-10T10:08:30.071Z,17.30
2018-04-10T10:10:58.367Z,17.30
2018-04-10T10:13:26.613Z,17.10
2018-04-10T10:15:54.917Z,16.80
2018-04-10T10:18:23.207Z,16.80
2018-04-10T10:20:51.555Z,16.90
2018-04-10T10:23:19.939Z,17.00
2018-04-10T10:25:48.296Z,17.00
2018-04-10T10:28:16.605Z,16.80
2018-04-10T10:30:44.882Z,16.70
2018-04-10T10:33:13.274Z,16.70
2018-04-10T10:35:41.514Z,16.50
2018-04-10T10:38:09.899Z,16.50
2018-04-10T10:40:38.219Z,16.70
2018-04-10T10:43:07.277Z,17.00
2018-04-10T10:45:35.549Z,17.00
2018-04-10T10:48:03.830Z,17.00
2018-04-10T10:50:32.132Z,17.00
2018-04-10T10:53:01.211Z,17.00
2018-04-10T10:55:29.473Z,16.90
2018-04-10T10:57:58.844Z,17.20
2018-04-10T11:00:27.277Z,17.20
2018-04-10T11:02:55.505Z,17.40
2018-04-10T11:05:23.784Z,17.50
2018-04-10T11:07:52.077Z,17.30
2018-04-10T11:10:20.317Z,17.40
2018-04-10T11:12:48.591Z,17.50
2018-04-10T11:15:16.871Z,17.70
2018-04-10T11:17:46.046Z,17.70
2018-04-10T11:20:14.340Z,17.60
2018-04-10T11:22:42.620Z,17.80
2018-04-10T11:25:11.633Z,18.20
2018-04-10T11:27:39.920Z,18.20
2018-04-10T11:30:08.204Z,18.10
2018-04-10T11:32:38.172Z,18.00
2018-04-10T11:35:06.516Z,17.90
2018-04-10T11:37:34.818Z,17.90
2018-04-10T11:40:03.843Z,18.10
2018-04-10T11:42:32.263Z,18.00
2018-04-10T11:45:01.399Z,18.30
2018-04-10T11:47:30.416Z,18.40
2018-04-10T11:49:58.688Z,18.40
2018-04-10T11:52:27.094Z,18.20
2018-04-10T11:54:55.344Z,18.10
2018-04-10T11:57:23.618Z,18.20
2018-04-10T11:59:51.910Z,18.00
2018-04-10T12:02:20.181Z,17.80
2018-04-10T12:04:48.748Z,17.80
2018-04-10T12:07:17.065Z,17.90
2018-04-10T12:09:45.332Z,17.80
2018-04-10T12:12:13.641Z,17.60
2018-04-10T12:14:42.659Z,17.60
2018-04-10T12:17:10.984Z,17.60
2018-04-10T12:19:40.042Z,17.50
2018-04-10T12:22:08.348Z,17.50
2018-04-10T12:24:36.639Z,17.50
2018-04-10T12:27:04.888Z,17.20
2018-04-10T12:29:33.176Z,17.10
2018-04-10T12:32:01.462Z,16.90
2018-04-10T12:34:29.750Z,17.00
2018-04-10T12:36:58.111Z,17.20
2018-04-10T12:39:26.506Z,16.90
2018-04-10T12:41:54.800Z,16.60
2018-04-10T12:44:23.145Z,16.20
2018-04-10T12:46:51.525Z,16.10
2018-04-10T12:49:21.009Z,16.20
2018-04-10T12:51:49.356Z,16.20
2018-04-10T12:54:18.432Z,16.20
2018-04-10T12:56:46.700Z,16.20
2018-04-10T12:59:16.541Z,16.20
2018-04-10T13:01:45.998Z,16.10
2018-04-10T13:04:14.268Z,15.90
2018-04-10T13:06:43.863Z,15.80
2018-04-10T13:09:12.091Z,15.60
2018-04-10T13:11:40.425Z,15.60
2018-04-10T13:14:08.665Z,15.80
2018-04-10T13:16:36.966Z,15.80
2018-04-10T13:19:05.269Z,16.00
2018-04-10T13:21:34.315Z,16.20
2018-04-10T13:24:02.593Z,16.20
2018-04-10T13:26:30.909Z,16.00
2018-04-10T13:29:00.405Z,15.80
2018-04-10T13:31:28.649Z,15.90
2018-04-10T13:33:56.922Z,15.90
2018-04-10T13:36:25.245Z,15.40
2018-04-10T13:38:53.508Z,15.30
2018-04-10T13:41:21.830Z,15.30
2018-04-10T13:43:51.075Z,15.10
2018-04-10T13:46:21.372Z,15.10
2018-04-10T13:48:49.615Z,15.00
2018-04-10T13:51:18.653Z,15.00
2018-04-10T13:53:46.929Z,15.00
2018-04-10T13:56:15.208Z,15.10
2018-04-10T13:58:44.683Z,15.00
2018-04-10T14:01:13.736Z,14.50
2018-04-10T14:03:42.101Z,14.40
2018-04-10T14:06:10.380Z,14.40
2018-04-10T14:08:38.720Z,14.40
2018-04-10T14:11:07.145Z,14.30
2018-04-10T14:13:35.376Z,14.30
2018-04-10T14:16:04.934Z,14.30
2018-04-10T14:18:33.748Z,14.20
2018-04-10T14:21:02.849Z,13.90
2018-04-10T14:23:31.880Z,13.80
2018-04-10T14:26:00.187Z,13.90
2018-04-10T14:28:28.447Z,13.80
2018-04-10T14:30:56.746Z,13.80
2018-04-10T14:33:25.009Z,13.70
2018-04-10T14:35:54.164Z,13.80
2018-04-10T14:38:22.436Z,14.00
2018-04-10T14:40:51.896Z,14.10
2018-04-10T14:43:20.265Z,14.10
2018-04-10T14:45:49.333Z,14.10
2018-04-10T14:48:17.626Z,13.90
2018-04-10T14:50:45.919Z,13.80
2018-04-10T14:53:14.214Z,13.80
2018-04-10T14:55:43.292Z,13.70
2018-04-10T14:58:12.850Z,13.60
2018-04-10T15:00:41.135Z,13.50
2018-04-10T15:03:10.982Z,13.20
2018-04-10T15:05:40.770Z,13.10
2018-04-10T15:08:09.024Z,13.10
2018-04-10T15:10:37.333Z,13.20
2018-04-10T15:13:05.629Z,13.20
2018-04-10T15:15:34.659Z,13.20
2018-04-10T15:18:04.126Z,13.10
2018-04-10T15:20:32.518Z,13.00
2018-04-10T15:23:01.549Z,13.20
2018-04-10T15:25:29.847Z,13.20
2018-04-10T15:27:58.110Z,13.00
2018-04-10T15:30:26.386Z,12.80
2018-04-10T15:32:54.863Z,12.60
2018-04-10T15:35:23.144Z,12.40
2018-04-10T15:37:51.399Z,12.50
2018-04-10T15:40:19.673Z,12.50
2018-04-10T15:42:47.994Z,12.30
2018-04-10T15:45:16.277Z,12.30
2018-04-10T15:47:44.519Z,12.00
2018-04-10T15:50:12.833Z,12.10
2018-04-10T15:52:41.104Z,12.10
2018-04-10T15:55:09.406Z,12.10
2018-04-10T15:57:38.434Z,12.00
2018-04-10T16:00:06.772Z,12.00
2018-04-10T16:02:35.826Z,11.60
2018-04-10T16:05:04.133Z,11.50
2018-04-10T16:07:33.223Z,11.30
2018-04-10T16:10:01.532Z,11.40
2018-04-10T16:12:29.873Z,11.40
2018-04-10T16:14:58.126Z,11.40
2018-04-10T16:17:26.378Z,11.40
2018-04-10T16:19:54.670Z,11.40
2018-04-10T16:22:22.931Z,11.10
2018-04-10T16:24:51.189Z,11.00
2018-04-10T16:27:19.639Z,10.80
2018-04-10T16:29:48.003Z,10.80
2018-04-10T16:32:16.296Z,10.60
2018-04-10T16:34:44.670Z,10.40
2018-04-10T16:37:12.932Z,10.40
2018-04-10T16:39:41.314Z,10.40
2018-04-10T16:42:09.629Z,10.50
2018-04-10T16:44:37.908Z,10.50
2018-04-10T16:47:06.970Z,10.40
2018-04-10T16:49:35.271Z,10.30
2018-04-10T16:52:04.533Z,10.30
2018-04-10T16:54:32.836Z,10.20
2018-04-10T16:57:01.933Z,10.20
2018-04-10T16:59:30.970Z,10.10
2018-04-10T17:01:59.332Z,10.10
2018-04-10T17:04:27.602Z,10.10
2018-04-10T17:06:55.872Z,9.90
2018-04-10T17:09:24.213Z,9.70
2018-04-10T17:11:52.497Z,9.70
2018-04-10T17:14:20.781Z,9.70
2018-04-10T17:16:49.113Z,9.70
2018-04-10T17:19:17.627Z,9.70
2018-04-10T17:21:45.920Z,9.50
2018-04-10T17:24:14.984Z,9.40
2018-04-10T17:26:43.438Z,9.30
2018-04-10T17:29:11.751Z,9.30
2018-04-10T17:31:40.162Z,9.10
2018-04-10T17:34:09.240Z,8.90
2018-04-10T17:36:37.515Z,8.90
2018-04-10T17:39:06.583Z,8.90
2018-04-10T17:41:35.816Z,8.80
2018-04-10T17:44:04.872Z,8.80
2018-04-10T17:46:33.168Z,8.80
2018-04-10T17:49:01.432Z,8.70
2018-04-10T17:51:29.712Z,8.70
2018-04-10T17:53:58.003Z,8.70
2018-04-10T17:56:26.355Z,8.70
2018-04-10T17:58:54.686Z,8.40
2018-04-10T18:01:23.763Z,8.40
2018-04-10T18:03:52.800Z,8.30
2018-04-10T18:06:21.731Z,8.20
2018-04-10T18:08:50.023Z,8.10
2018-04-10T18:11:18.346Z,8.10
2018-04-10T18:13:46.986Z,8.10
2018-04-10T18:16:15.305Z,8.00
2018-04-10T18:18:45.301Z,7.90
2018-04-10T18:21:14.424Z,7.80
2018-04-10T18:23:42.723Z,7.80
2018-04-10T18:26:11.002Z,7.60
2018-04-10T18:28:40.277Z,7.70
2018-04-10T18:31:09.143Z,7.60
2018-04-10T18:33:38.905Z,7.50
2018-04-10T18:36:08.695Z,7.60
2018-04-10T18:38:37.737Z,7.60
2018-04-10T18:41:06.043Z,7.60
2018-04-10T18:43:34.303Z,7.70
2018-04-10T18:46:02.662Z,7.70
2018-04-10T18:48:31.846Z,7.60
2018-04-10T18:51:01.059Z,7.60
2018-04-10T18:53:29.392Z,7.50
2018-04-10T18:55:58.270Z,7.60
2018-04-10T18:58:26.548Z,7.60
2018-04-10T19:00:54.928Z,7.60
2018-04-10T19:03:23.258Z,7.50
2018-04-10T19:05:51.515Z,7.40
2018-04-10T19:08:19.899Z,7.50
2018-04-10T19:10:48.224Z,7.40
2018-04-10T19:13:17.544Z,7.40
2018-04-10T19:15:46.878Z,7.40
2018-04-10T19:18:15.192Z,7.30
2018-04-10T19:20:43.739Z,7.40
2018-04-10T19:23:12.108Z,7.40
2018-04-10T19:25:40.427Z,7.50
2018-04-10T19:28:09.488Z,7.40
2018-04-10T19:30:37.800Z,7.40
2018-04-10T19:33:08.127Z,7.40
2018-04-10T19:35:38.945Z,7.40
2018-04-10T19:38:07.244Z,7.40
2018-04-10T19:40:35.571Z,7.30
2018-04-10T19:43:03.927Z,7.40
2018-04-10T19:45:32.404Z,7.30
2018-04-10T19:48:00.685Z,7.30
2018-04-10T19:50:28.986Z,7.20
2018-04-10T19:52:57.335Z,7.10
2018-04-10T19:55:27.314Z,7.10
2018-04-10T19:57:55.692Z,7.20
2018-04-10T20:00:24.859Z,7.20
2018-04-10T20:02:53.137Z,7.20
2018-04-10T20:05:21.616Z,7.30
2018-04-10T20:07:49.993Z,7.30
2018-04-10T20:10:18.436Z,7.20
2018-04-10T20:12:46.719Z,7.20
2018-04-10T20:15:15.046Z,7.20
2018-04-10T20:17:43.904Z,7.20
2018-04-10T20:20:12.317Z,7.20
2018-04-10T20:22:41.400Z,7.30
2018-04-10T20:25:09.689Z,7.30
2018-04-10T20:27:38.769Z,7.50
2018-04-10T20:30:07.462Z,7.40
2018-04-10T20:32:36.125Z,7.50
2018-04-10T20:35:04.535Z,7.40
2018-04-10T20:37:33.592Z,7.30
2018-04-10T20:40:01.993Z,7.30
2018-04-10T20:42:30.489Z,7.30
2018-04-10T20:44:58.781Z,7.20
2018-04-10T20:47:28.384Z,7.10
2018-04-10T20:49:56.665Z,7.10
2018-04-10T20:52:25.818Z,7.10
2018-04-10T20:54:54.782Z,7.20
2018-04-10T20:57:23.555Z,7.30
2018-04-10T20:59:51.866Z,7.30
2018-04-10T21:02:20.161Z,7.20
2018-04-10T21:04:48.530Z,7.10
2018-04-10T21:07:17.077Z,7.10
2018-04-10T21:09:45.360Z,7.20
2018-04-10T21:12:13.654Z,7.20
2018-04-10T21:14:41.915Z,7.10
2018-04-10T21:17:10.207Z,7.10
2018-04-10T21:19:38.509Z,7.10
2018-04-10T21:22:06.912Z,7.00
2018-04-10T21:24:35.337Z,7.00
2018-04-10T21:27:04.670Z,7.00
2018-04-10T21:29:33.756Z,6.90
2018-04-10T21:32:02.144Z,6.90
2018-04-10T21:34:30.477Z,7.00
2018-04-10T21:36:58.764Z,6.90
2018-04-10T21:39:27.186Z,6.90
2018-04-10T21:41:56.202Z,6.90
2018-04-10T21:44:25.290Z,6.90
2018-04-10T21:46:54.328Z,7.00
2018-04-10T21:49:22.629Z,7.00
2018-04-10T21:51:50.915Z,7.00
2018-04-10T21:54:19.985Z,6.90
2018-04-10T21:56:48.361Z,6.90
2018-04-10T21:59:16.600Z,6.80
2018-04-10T22:01:44.896Z,6.80
2018-04-10T22:04:13.212Z,6.80
2018-04-10T22:06:41.552Z,6.80
2018-04-10T22:09:09.846Z,6.80
2018-04-10T22:11:38.147Z,6.70
2018-04-10T22:14:07.964Z,6.80
2018-04-10T22:16:36.220Z,6.80
2018-04-10T22:19:04.740Z,6.80
2018-04-10T22:21:33.804Z,6.80
2018-04-10T22:24:02.097Z,6.80
2018-04-10T22:26:31.095Z,6.70
2018-04-10T22:28:59.347Z,6.70
2018-04-10T22:31:28.668Z,6.70
2018-04-10T22:33:57.649Z,6.60
2018-04-10T22:36:25.932Z,6.60
2018-04-10T22:38:54.205Z,6.60
2018-04-10T22:41:22.485Z,6.60
2018-04-10T22:43:50.750Z,6.60
2018-04-10T22:46:19.010Z,6.60
2018-04-10T22:48:48.582Z,6.70
2018-04-10T22:51:16.879Z,6.60
2018-04-10T22:53:45.925Z,6.60
2018-04-10T22:56:14.193Z,6.50
2018-04-10T22:58:42.512Z,6.60
2018-04-10T23:01:10.819Z,6.60
2018-04-10T23:03:40.995Z,6.50
2018-04-10T23:06:09.280Z,6.50
2018-04-10T23:08:37.545Z,6.50
2018-04-10T23:11:06.963Z,6.50
2018-04-10T23:13:35.359Z,6.50
2018-04-10T23:16:03.650Z,6.40
2018-04-10T23:18:31.892Z,6.40
2018-04-10T23:21:00.170Z,6.40
2018-04-10T23:23:28.431Z,6.40
2018-04-10T23:25:56.697Z,6.40
2018-04-10T23:28:26.180Z,6.40
2018-04-10T23:30:54.511Z,6.30
2018-04-10T23:33:22.766Z,6.30
2018-04-10T23:35:51.177Z,6.30
2018-04-10T23:38:19.560Z,6.30
2018-04-10T23:40:49.560Z,6.20
2018-04-10T23:43:17.840Z,6.30
2018-04-10T23:45:47.299Z,6.20
2018-04-10T23:48:15.540Z,6.20
2018-04-10T23:50:43.791Z,6.20
2018-04-10T23:53:12.086Z,6.20
2018-04-10T23:55:41.523Z,6.20
2018-04-10T23:58:09.804Z,6.10
